Terminal Aerodrome Forecast
Issued by NWS

Home | Current Version | Previous Version | Text Only | Print | Product List | Glossary On
Versions: 1 2 3 4 5 6 7 8 9 10 11 12 13 14 15 16 17 18 19 20 21 22 23 24 25 26 27 28 29 30 31 32 33 34 35 36 37 38 39 40 41 42 43 44 45 46 47 48 49 50
695
FTUS44 KHGX 281219 AAA
TAFIAH
TAF AMD
KIAH 281219Z 2812/2918 17009KT 3SM HZ BKN018 OVC250
     FM281500 17014KT P6SM BKN028
      TEMPO 2815/2817 SCT035
     FM281700 17016G24KT P6SM SCT040
     FM290000 15015G25KT P6SM BKN030
     FM290500 15013G23KT P6SM SCT012 BKN022
     FM291500 15017G27KT P6SM BKN028=

USA.gov is the U.S. government's official web portal to all federal, state and local government web resources and services.